sensor_id;sensor_type;location;lat;lon;timestamp;P1;durP1;ratioP1;P2;durP2;ratioP2
51184;SDS011;37248;59.350;18.050;2023-05-14T00:00:46;6.23;;;2.57;;
51184;SDS011;37248;59.350;18.050;2023-05-14T00:03:11;10.32;;;2.92;;
51184;SDS011;37248;59.350;18.050;2023-05-14T00:05:37;6.07;;;2.50;;
51184;SDS011;37248;59.350;18.050;2023-05-14T00:08:02;5.20;;;2.37;;
51184;SDS011;37248;59.350;18.050;2023-05-14T00:10:27;7.95;;;2.60;;
51184;SDS011;37248;59.350;18.050;2023-05-14T00:12:53;5.13;;;2.33;;
51184;SDS011;37248;59.350;18.050;2023-05-14T00:15:18;8.30;;;2.70;;
51184;SDS011;37248;59.350;18.050;2023-05-14T00:17:43;5.20;;;2.33;;
51184;SDS011;37248;59.350;18.050;2023-05-14T00:20:09;6.82;;;3.17;;
51184;SDS011;37248;59.350;18.050;2023-05-14T00:22:36;4.70;;;2.20;;
51184;SDS011;37248;59.350;18.050;2023-05-14T00:25:01;5.78;;;2.60;;
51184;SDS011;37248;59.350;18.050;2023-05-14T00:27:27;6.67;;;2.80;;
51184;SDS011;37248;59.350;18.050;2023-05-14T00:29:52;4.40;;;2.33;;
51184;SDS011;37248;59.350;18.050;2023-05-14T00:32:17;6.57;;;2.60;;
51184;SDS011;37248;59.350;18.050;2023-05-14T00:34:42;7.80;;;2.63;;
51184;SDS011;37248;59.350;18.050;2023-05-14T00:37:08;3.87;;;2.33;;
51184;SDS011;37248;59.350;18.050;2023-05-14T00:39:33;4.27;;;2.30;;
51184;SDS011;37248;59.350;18.050;2023-05-14T00:41:58;3.67;;;2.30;;
51184;SDS011;37248;59.350;18.050;2023-05-14T00:44:24;3.63;;;2.57;;
51184;SDS011;37248;59.350;18.050;2023-05-14T00:46:49;5.63;;;2.60;;
51184;SDS011;37248;59.350;18.050;2023-05-14T00:49:14;5.63;;;2.40;;
51184;SDS011;37248;59.350;18.050;2023-05-14T00:51:39;3.00;;;2.10;;
51184;SDS011;37248;59.350;18.050;2023-05-14T00:54:05;4.80;;;2.60;;
51184;SDS011;37248;59.350;18.050;2023-05-14T00:56:31;3.20;;;2.03;;
51184;SDS011;37248;59.350;18.050;2023-05-14T00:58:56;5.13;;;2.40;;
51184;SDS011;37248;59.350;18.050;2023-05-14T01:01:21;4.70;;;2.47;;
51184;SDS011;37248;59.350;18.050;2023-05-14T01:03:47;5.40;;;2.47;;
51184;SDS011;37248;59.350;18.050;2023-05-14T01:06:17;6.97;;;2.30;;
51184;SDS011;37248;59.350;18.050;2023-05-14T01:11:32;9.70;;;2.30;;
51184;SDS011;37248;59.350;18.050;2023-05-14T01:16:21;4.60;;;2.20;;
51184;SDS011;37248;59.350;18.050;2023-05-14T01:18:48;7.68;;;2.80;;
51184;SDS011;37248;59.350;18.050;2023-05-14T01:21:22;5.95;;;2.17;;
51184;SDS011;37248;59.350;18.050;2023-05-14T01:23:47;4.78;;;2.40;;
51184;SDS011;37248;59.350;18.050;2023-05-14T01:26:13;3.37;;;2.07;;
51184;SDS011;37248;59.350;18.050;2023-05-14T01:28:38;5.23;;;2.37;;
51184;SDS011;37248;59.350;18.050;2023-05-14T01:31:07;6.70;;;2.20;;
51184;SDS011;37248;59.350;18.050;2023-05-14T01:33:34;6.22;;;2.35;;
51184;SDS011;37248;59.350;18.050;2023-05-14T01:36:00;4.20;;;2.40;;
51184;SDS011;37248;59.350;18.050;2023-05-14T01:38:25;5.53;;;2.40;;
51184;SDS011;37248;59.350;18.050;2023-05-14T01:40:54;4.28;;;2.22;;
51184;SDS011;37248;59.350;18.050;2023-05-14T01:43:20;3.60;;;2.20;;
51184;SDS011;37248;59.350;18.050;2023-05-14T01:45:45;3.65;;;2.35;;
51184;SDS011;37248;59.350;18.050;2023-05-14T01:48:10;4.57;;;2.10;;
51184;SDS011;37248;59.350;18.050;2023-05-14T01:50:35;3.20;;;2.08;;
51184;SDS011;37248;59.350;18.050;2023-05-14T01:53:01;3.27;;;1.93;;
51184;SDS011;37248;59.350;18.050;2023-05-14T01:55:26;4.23;;;1.90;;
51184;SDS011;37248;59.350;18.050;2023-05-14T01:57:52;5.63;;;2.10;;
51184;SDS011;37248;59.350;18.050;2023-05-14T02:00:17;4.03;;;2.30;;
51184;SDS011;37248;59.350;18.050;2023-05-14T02:02:43;3.78;;;2.00;;
51184;SDS011;37248;59.350;18.050;2023-05-14T02:05:09;3.03;;;2.03;;
51184;SDS011;37248;59.350;18.050;2023-05-14T02:07:34;3.45;;;2.13;;
51184;SDS011;37248;59.350;18.050;2023-05-14T02:10:00;3.70;;;2.10;;
51184;SDS011;37248;59.350;18.050;2023-05-14T02:12:25;4.77;;;2.30;;
51184;SDS011;37248;59.350;18.050;2023-05-14T02:14:50;3.22;;;2.25;;
51184;SDS011;37248;59.350;18.050;2023-05-14T02:17:16;4.77;;;2.50;;
51184;SDS011;37248;59.350;18.050;2023-05-14T02:19:42;4.80;;;2.05;;
51184;SDS011;37248;59.350;18.050;2023-05-14T02:22:07;6.40;;;2.30;;
51184;SDS011;37248;59.350;18.050;2023-05-14T02:24:32;2.75;;;1.85;;
51184;SDS011;37248;59.350;18.050;2023-05-14T02:26:58;8.83;;;2.20;;
51184;SDS011;37248;59.350;18.050;2023-05-14T02:29:25;9.05;;;2.75;;
51184;SDS011;37248;59.350;18.050;2023-05-14T02:31:50;10.63;;;2.47;;
51184;SDS011;37248;59.350;18.050;2023-05-14T02:34:15;11.83;;;2.60;;
51184;SDS011;37248;59.350;18.050;2023-05-14T02:36:40;9.67;;;2.90;;
51184;SDS011;37248;59.350;18.050;2023-05-14T02:39:06;14.43;;;2.50;;
51184;SDS011;37248;59.350;18.050;2023-05-14T02:41:31;16.27;;;2.97;;
51184;SDS011;37248;59.350;18.050;2023-05-14T02:43:56;4.27;;;2.20;;
51184;SDS011;37248;59.350;18.050;2023-05-14T02:46:21;6.27;;;2.33;;
51184;SDS011;37248;59.350;18.050;2023-05-14T02:48:47;5.80;;;2.37;;
51184;SDS011;37248;59.350;18.050;2023-05-14T02:51:12;3.72;;;2.20;;
51184;SDS011;37248;59.350;18.050;2023-05-14T02:53:37;7.00;;;2.20;;
51184;SDS011;37248;59.350;18.050;2023-05-14T02:56:02;4.13;;;2.17;;
51184;SDS011;37248;59.350;18.050;2023-05-14T02:58:28;7.80;;;2.43;;
51184;SDS011;37248;59.350;18.050;2023-05-14T03:00:53;4.03;;;2.08;;
51184;SDS011;37248;59.350;18.050;2023-05-14T03:03:18;4.53;;;2.13;;
51184;SDS011;37248;59.350;18.050;2023-05-14T03:05:44;6.35;;;2.80;;
51184;SDS011;37248;59.350;18.050;2023-05-14T03:08:09;5.27;;;2.13;;
51184;SDS011;37248;59.350;18.050;2023-05-14T03:10:34;11.37;;;2.60;;
51184;SDS011;37248;59.350;18.050;2023-05-14T03:13:00;6.43;;;2.23;;
51184;SDS011;37248;59.350;18.050;2023-05-14T03:15:25;6.07;;;2.03;;
51184;SDS011;37248;59.350;18.050;2023-05-14T03:17:50;9.20;;;2.00;;
51184;SDS011;37248;59.350;18.050;2023-05-14T03:20:15;2.87;;;1.90;;
51184;SDS011;37248;59.350;18.050;2023-05-14T03:22:41;6.27;;;2.40;;
51184;SDS011;37248;59.350;18.050;2023-05-14T03:25:06;6.13;;;2.00;;
51184;SDS011;37248;59.350;18.050;2023-05-14T03:27:32;4.38;;;2.03;;
51184;SDS011;37248;59.350;18.050;2023-05-14T03:29:58;7.13;;;2.00;;
51184;SDS011;37248;59.350;18.050;2023-05-14T03:32:23;3.57;;;2.00;;
51184;SDS011;37248;59.350;18.050;2023-05-14T03:34:49;5.22;;;2.08;;
51184;SDS011;37248;59.350;18.050;2023-05-14T03:37:14;5.70;;;1.93;;
51184;SDS011;37248;59.350;18.050;2023-05-14T03:39:39;3.37;;;2.03;;
51184;SDS011;37248;59.350;18.050;2023-05-14T03:42:05;5.23;;;1.77;;
51184;SDS011;37248;59.350;18.050;2023-05-14T03:44:30;4.50;;;1.97;;
51184;SDS011;37248;59.350;18.050;2023-05-14T03:46:55;5.10;;;2.13;;
51184;SDS011;37248;59.350;18.050;2023-05-14T03:49:21;4.70;;;1.97;;
51184;SDS011;37248;59.350;18.050;2023-05-14T03:51:46;2.93;;;1.93;;
51184;SDS011;37248;59.350;18.050;2023-05-14T03:54:11;3.17;;;2.00;;
51184;SDS011;37248;59.350;18.050;2023-05-14T03:56:36;5.70;;;2.30;;
51184;SDS011;37248;59.350;18.050;2023-05-14T03:59:02;2.37;;;1.73;;
51184;SDS011;37248;59.350;18.050;2023-05-14T04:01:27;3.10;;;1.70;;
51184;SDS011;37248;59.350;18.050;2023-05-14T04:03:52;3.23;;;1.90;;
51184;SDS011;37248;59.350;18.050;2023-05-14T04:06:18;4.70;;;1.97;;
51184;SDS011;37248;59.350;18.050;2023-05-14T04:08:43;2.93;;;1.70;;
51184;SDS011;37248;59.350;18.050;2023-05-14T04:11:08;4.43;;;1.97;;
51184;SDS011;37248;59.350;18.050;2023-05-14T04:13:33;4.47;;;1.77;;
51184;SDS011;37248;59.350;18.050;2023-05-14T04:15:59;3.03;;;1.60;;
51184;SDS011;37248;59.350;18.050;2023-05-14T04:18:24;3.20;;;2.00;;
51184;SDS011;37248;59.350;18.050;2023-05-14T04:20:49;3.33;;;1.90;;
51184;SDS011;37248;59.350;18.050;2023-05-14T04:23:15;2.40;;;1.80;;
51184;SDS011;37248;59.350;18.050;2023-05-14T04:25:40;3.13;;;1.95;;
51184;SDS011;37248;59.350;18.050;2023-05-14T04:28:05;7.80;;;1.70;;
51184;SDS011;37248;59.350;18.050;2023-05-14T04:30:30;4.90;;;1.73;;
51184;SDS011;37248;59.350;18.050;2023-05-14T04:32:56;11.07;;;2.07;;
51184;SDS011;37248;59.350;18.050;2023-05-14T04:35:21;4.30;;;1.80;;
51184;SDS011;37248;59.350;18.050;2023-05-14T04:37:46;5.47;;;1.70;;
51184;SDS011;37248;59.350;18.050;2023-05-14T04:40:13;7.63;;;1.98;;
51184;SDS011;37248;59.350;18.050;2023-05-14T04:42:39;14.73;;;2.08;;
51184;SDS011;37248;59.350;18.050;2023-05-14T04:45:05;8.57;;;2.40;;
51184;SDS011;37248;59.350;18.050;2023-05-14T04:47:31;10.82;;;2.10;;
51184;SDS011;37248;59.350;18.050;2023-05-14T04:49:56;9.87;;;1.90;;
51184;SDS011;37248;59.350;18.050;2023-05-14T04:52:22;6.37;;;2.10;;
51184;SDS011;37248;59.350;18.050;2023-05-14T04:54:47;4.00;;;1.70;;
51184;SDS011;37248;59.350;18.050;2023-05-14T04:57:12;8.63;;;2.20;;
51184;SDS011;37248;59.350;18.050;2023-05-14T04:59:37;3.70;;;1.90;;
51184;SDS011;37248;59.350;18.050;2023-05-14T05:02:03;8.83;;;2.20;;
51184;SDS011;37248;59.350;18.050;2023-05-14T05:04:28;4.03;;;1.90;;
51184;SDS011;37248;59.350;18.050;2023-05-14T05:06:53;4.47;;;1.70;;
51184;SDS011;37248;59.350;18.050;2023-05-14T05:09:19;4.17;;;2.00;;
51184;SDS011;37248;59.350;18.050;2023-05-14T05:11:44;4.40;;;1.83;;
51184;SDS011;37248;59.350;18.050;2023-05-14T05:14:09;5.13;;;2.00;;
51184;SDS011;37248;59.350;18.050;2023-05-14T05:16:35;7.33;;;2.30;;
51184;SDS011;37248;59.350;18.050;2023-05-14T05:19:00;4.27;;;2.07;;
51184;SDS011;37248;59.350;18.050;2023-05-14T05:21:25;8.37;;;2.20;;
51184;SDS011;37248;59.350;18.050;2023-05-14T05:23:51;11.20;;;3.03;;
51184;SDS011;37248;59.350;18.050;2023-05-14T05:26:16;12.03;;;3.07;;
51184;SDS011;37248;59.350;18.050;2023-05-14T05:28:41;14.43;;;3.33;;
51184;SDS011;37248;59.350;18.050;2023-05-14T05:31:06;15.33;;;3.40;;
51184;SDS011;37248;59.350;18.050;2023-05-14T05:33:32;9.18;;;2.95;;
51184;SDS011;37248;59.350;18.050;2023-05-14T05:35:58;8.10;;;2.65;;
51184;SDS011;37248;59.350;18.050;2023-05-14T05:38:23;14.67;;;3.57;;
51184;SDS011;37248;59.350;18.050;2023-05-14T05:40:48;11.97;;;3.27;;
51184;SDS011;37248;59.350;18.050;2023-05-14T05:43:14;7.93;;;3.10;;
51184;SDS011;37248;59.350;18.050;2023-05-14T05:45:39;12.10;;;3.70;;
51184;SDS011;37248;59.350;18.050;2023-05-14T05:48:05;7.63;;;3.50;;
51184;SDS011;37248;59.350;18.050;2023-05-14T05:50:30;19.10;;;3.93;;
51184;SDS011;37248;59.350;18.050;2023-05-14T05:52:56;15.15;;;4.05;;
51184;SDS011;37248;59.350;18.050;2023-05-14T05:55:23;18.00;;;3.80;;
51184;SDS011;37248;59.350;18.050;2023-05-14T05:57:48;17.47;;;3.90;;
51184;SDS011;37248;59.350;18.050;2023-05-14T06:00:13;17.87;;;4.20;;
51184;SDS011;37248;59.350;18.050;2023-05-14T06:02:39;11.63;;;4.00;;
51184;SDS011;37248;59.350;18.050;2023-05-14T06:05:05;12.40;;;4.05;;
51184;SDS011;37248;59.350;18.050;2023-05-14T06:07:31;9.88;;;3.40;;
51184;SDS011;37248;59.350;18.050;2023-05-14T06:09:56;13.73;;;4.10;;
51184;SDS011;37248;59.350;18.050;2023-05-14T06:12:22;9.50;;;3.70;;
51184;SDS011;37248;59.350;18.050;2023-05-14T06:14:47;9.47;;;3.37;;
51184;SDS011;37248;59.350;18.050;2023-05-14T06:17:12;18.50;;;4.03;;
51184;SDS011;37248;59.350;18.050;2023-05-14T06:19:37;10.17;;;3.40;;
51184;SDS011;37248;59.350;18.050;2023-05-14T06:22:03;9.80;;;3.10;;
51184;SDS011;37248;59.350;18.050;2023-05-14T06:24:28;10.70;;;3.63;;
51184;SDS011;37248;59.350;18.050;2023-05-14T06:26:53;9.80;;;3.37;;
51184;SDS011;37248;59.350;18.050;2023-05-14T06:29:18;11.33;;;3.30;;
51184;SDS011;37248;59.350;18.050;2023-05-14T06:31:44;10.53;;;3.60;;
51184;SDS011;37248;59.350;18.050;2023-05-14T06:34:09;5.73;;;3.40;;
51184;SDS011;37248;59.350;18.050;2023-05-14T06:36:35;8.07;;;3.37;;
51184;SDS011;37248;59.350;18.050;2023-05-14T06:39:00;8.00;;;3.17;;
51184;SDS011;37248;59.350;18.050;2023-05-14T06:41:25;11.53;;;3.43;;
51184;SDS011;37248;59.350;18.050;2023-05-14T06:43:51;6.43;;;3.50;;
51184;SDS011;37248;59.350;18.050;2023-05-14T06:46:16;9.37;;;3.30;;
51184;SDS011;37248;59.350;18.050;2023-05-14T06:48:41;8.73;;;3.43;;
51184;SDS011;37248;59.350;18.050;2023-05-14T06:51:06;7.47;;;3.17;;
51184;SDS011;37248;59.350;18.050;2023-05-14T06:53:32;12.53;;;3.50;;
51184;SDS011;37248;59.350;18.050;2023-05-14T06:55:57;10.50;;;3.40;;
51184;SDS011;37248;59.350;18.050;2023-05-14T06:58:22;8.43;;;3.40;;
51184;SDS011;37248;59.350;18.050;2023-05-14T07:00:47;12.53;;;3.17;;
51184;SDS011;37248;59.350;18.050;2023-05-14T07:03:13;9.37;;;3.43;;
51184;SDS011;37248;59.350;18.050;2023-05-14T07:05:38;8.60;;;3.10;;
51184;SDS011;37248;59.350;18.050;2023-05-14T07:08:05;8.88;;;3.10;;
51184;SDS011;37248;59.350;18.050;2023-05-14T07:10:30;11.13;;;3.40;;
51184;SDS011;37248;59.350;18.050;2023-05-14T07:12:56;6.05;;;3.15;;
51184;SDS011;37248;59.350;18.050;2023-05-14T07:15:22;17.77;;;3.43;;
51184;SDS011;37248;59.350;18.050;2023-05-14T07:17:47;12.55;;;3.65;;
51184;SDS011;37248;59.350;18.050;2023-05-14T07:20:12;7.97;;;2.80;;
51184;SDS011;37248;59.350;18.050;2023-05-14T07:22:38;12.57;;;3.70;;
51184;SDS011;37248;59.350;18.050;2023-05-14T07:25:03;7.10;;;3.30;;
51184;SDS011;37248;59.350;18.050;2023-05-14T07:27:28;6.33;;;3.20;;
51184;SDS011;37248;59.350;18.050;2023-05-14T07:29:54;5.70;;;2.80;;
51184;SDS011;37248;59.350;18.050;2023-05-14T07:32:19;10.43;;;3.07;;
51184;SDS011;37248;59.350;18.050;2023-05-14T07:34:44;10.60;;;3.03;;
51184;SDS011;37248;59.350;18.050;2023-05-14T07:37:10;9.77;;;3.10;;
51184;SDS011;37248;59.350;18.050;2023-05-14T07:39:35;7.77;;;3.10;;
51184;SDS011;37248;59.350;18.050;2023-05-14T07:42:00;8.10;;;2.90;;
51184;SDS011;37248;59.350;18.050;2023-05-14T07:44:26;31.27;;;4.10;;
51184;SDS011;37248;59.350;18.050;2023-05-14T07:46:51;51.40;;;5.67;;
51184;SDS011;37248;59.350;18.050;2023-05-14T07:49:16;17.27;;;3.53;;
51184;SDS011;37248;59.350;18.050;2023-05-14T07:51:41;23.80;;;4.13;;
51184;SDS011;37248;59.350;18.050;2023-05-14T07:54:07;19.60;;;4.80;;
51184;SDS011;37248;59.350;18.050;2023-05-14T07:56:32;20.13;;;3.97;;
51184;SDS011;37248;59.350;18.050;2023-05-14T07:58:57;42.63;;;4.43;;
51184;SDS011;37248;59.350;18.050;2023-05-14T08:01:22;31.00;;;3.57;;
51184;SDS011;37248;59.350;18.050;2023-05-14T08:03:48;22.73;;;3.87;;
51184;SDS011;37248;59.350;18.050;2023-05-14T08:06:13;16.97;;;3.80;;
51184;SDS011;37248;59.350;18.050;2023-05-14T08:08:38;14.23;;;3.83;;
51184;SDS011;37248;59.350;18.050;2023-05-14T08:11:03;19.57;;;3.93;;
51184;SDS011;37248;59.350;18.050;2023-05-14T08:13:29;11.67;;;3.67;;
51184;SDS011;37248;59.350;18.050;2023-05-14T08:15:54;14.90;;;3.93;;
51184;SDS011;37248;59.350;18.050;2023-05-14T08:18:20;14.73;;;3.43;;
51184;SDS011;37248;59.350;18.050;2023-05-14T08:20:45;15.57;;;4.53;;
51184;SDS011;37248;59.350;18.050;2023-05-14T08:23:11;14.83;;;3.53;;
51184;SDS011;37248;59.350;18.050;2023-05-14T08:25:36;11.52;;;3.60;;
51184;SDS011;37248;59.350;18.050;2023-05-14T08:28:01;12.00;;;3.20;;
51184;SDS011;37248;59.350;18.050;2023-05-14T08:30:27;13.75;;;4.25;;
51184;SDS011;37248;59.350;18.050;2023-05-14T08:32:52;11.60;;;3.27;;
51184;SDS011;37248;59.350;18.050;2023-05-14T08:35:18;17.33;;;3.57;;
51184;SDS011;37248;59.350;18.050;2023-05-14T08:37:43;11.83;;;3.27;;
51184;SDS011;37248;59.350;18.050;2023-05-14T08:40:09;12.20;;;3.45;;
51184;SDS011;37248;59.350;18.050;2023-05-14T08:42:34;12.52;;;3.33;;
51184;SDS011;37248;59.350;18.050;2023-05-14T08:45:01;11.52;;;3.10;;
51184;SDS011;37248;59.350;18.050;2023-05-14T08:47:28;13.75;;;3.70;;
51184;SDS011;37248;59.350;18.050;2023-05-14T08:50:03;13.35;;;3.83;;
51184;SDS011;37248;59.350;18.050;2023-05-14T08:52:29;18.20;;;3.63;;
51184;SDS011;37248;59.350;18.050;2023-05-14T08:54:55;17.92;;;2.90;;
51184;SDS011;37248;59.350;18.050;2023-05-14T08:57:20;16.37;;;3.53;;
51184;SDS011;37248;59.350;18.050;2023-05-14T08:59:48;14.80;;;3.30;;
51184;SDS011;37248;59.350;18.050;2023-05-14T09:02:14;10.90;;;3.20;;
51184;SDS011;37248;59.350;18.050;2023-05-14T09:04:40;11.00;;;2.88;;
51184;SDS011;37248;59.350;18.050;2023-05-14T09:07:06;12.25;;;3.10;;
51184;SDS011;37248;59.350;18.050;2023-05-14T09:09:31;8.93;;;3.20;;
51184;SDS011;37248;59.350;18.050;2023-05-14T09:11:57;10.15;;;2.83;;
51184;SDS011;37248;59.350;18.050;2023-05-14T09:14:22;5.80;;;2.93;;
51184;SDS011;37248;59.350;18.050;2023-05-14T09:16:48;7.73;;;2.97;;
51184;SDS011;37248;59.350;18.050;2023-05-14T09:19:14;9.70;;;3.10;;
51184;SDS011;37248;59.350;18.050;2023-05-14T09:21:41;10.68;;;3.13;;
51184;SDS011;37248;59.350;18.050;2023-05-14T09:24:08;7.97;;;3.03;;
51184;SDS011;37248;59.350;18.050;2023-05-14T09:26:34;6.27;;;3.03;;
51184;SDS011;37248;59.350;18.050;2023-05-14T09:28:59;8.47;;;2.80;;
51184;SDS011;37248;59.350;18.050;2023-05-14T09:31:26;5.63;;;2.70;;
51184;SDS011;37248;59.350;18.050;2023-05-14T09:33:51;6.53;;;2.80;;
51184;SDS011;37248;59.350;18.050;2023-05-14T09:36:17;10.53;;;3.50;;
51184;SDS011;37248;59.350;18.050;2023-05-14T09:38:43;6.72;;;2.55;;
51184;SDS011;37248;59.350;18.050;2023-05-14T09:41:08;9.57;;;2.93;;
51184;SDS011;37248;59.350;18.050;2023-05-14T09:43:33;9.07;;;3.03;;
51184;SDS011;37248;59.350;18.050;2023-05-14T09:45:59;7.63;;;2.40;;
51184;SDS011;37248;59.350;18.050;2023-05-14T09:48:24;8.13;;;2.87;;
51184;SDS011;37248;59.350;18.050;2023-05-14T09:50:50;8.37;;;2.57;;
51184;SDS011;37248;59.350;18.050;2023-05-14T09:53:16;5.97;;;2.72;;
51184;SDS011;37248;59.350;18.050;2023-05-14T09:55:41;6.43;;;2.40;;
51184;SDS011;37248;59.350;18.050;2023-05-14T09:58:07;4.93;;;2.47;;
51184;SDS011;37248;59.350;18.050;2023-05-14T10:00:32;3.83;;;2.60;;
51184;SDS011;37248;59.350;18.050;2023-05-14T10:02:58;6.88;;;2.80;;
51184;SDS011;37248;59.350;18.050;2023-05-14T10:05:25;2.92;;;2.42;;
51184;SDS011;37248;59.350;18.050;2023-05-14T10:07:52;5.40;;;2.30;;
51184;SDS011;37248;59.350;18.050;2023-05-14T10:10:18;7.18;;;2.17;;
51184;SDS011;37248;59.350;18.050;2023-05-14T10:12:45;7.17;;;2.70;;
51184;SDS011;37248;59.350;18.050;2023-05-14T10:15:15;6.88;;;2.40;;
51184;SDS011;37248;59.350;18.050;2023-05-14T10:17:45;4.97;;;2.40;;
51184;SDS011;37248;59.350;18.050;2023-05-14T10:20:12;4.00;;;2.20;;
51184;SDS011;37248;59.350;18.050;2023-05-14T10:22:38;5.65;;;2.55;;
51184;SDS011;37248;59.350;18.050;2023-05-14T10:25:04;4.63;;;2.17;;
51184;SDS011;37248;59.350;18.050;2023-05-14T10:27:29;4.73;;;2.50;;
51184;SDS011;37248;59.350;18.050;2023-05-14T10:29:55;4.33;;;2.27;;
51184;SDS011;37248;59.350;18.050;2023-05-14T10:32:21;3.70;;;2.10;;
51184;SDS011;37248;59.350;18.050;2023-05-14T10:34:48;4.38;;;2.28;;
51184;SDS011;37248;59.350;18.050;2023-05-14T10:37:17;4.45;;;2.13;;
51184;SDS011;37248;59.350;18.050;2023-05-14T10:39:43;3.72;;;2.38;;
51184;SDS011;37248;59.350;18.050;2023-05-14T10:42:12;5.50;;;2.40;;
51184;SDS011;37248;59.350;18.050;2023-05-14T10:44:40;4.43;;;2.28;;
51184;SDS011;37248;59.350;18.050;2023-05-14T10:47:06;7.38;;;2.13;;
51184;SDS011;37248;59.350;18.050;2023-05-14T10:49:32;3.80;;;2.30;;
51184;SDS011;37248;59.350;18.050;2023-05-14T10:51:57;4.18;;;2.40;;
51184;SDS011;37248;59.350;18.050;2023-05-14T10:54:23;2.30;;;1.80;;
51184;SDS011;37248;59.350;18.050;2023-05-14T10:56:48;4.27;;;2.10;;
51184;SDS011;37248;59.350;18.050;2023-05-14T10:59:15;5.37;;;2.00;;
51184;SDS011;37248;59.350;18.050;2023-05-14T11:01:41;3.28;;;2.10;;
51184;SDS011;37248;59.350;18.050;2023-05-14T11:04:06;3.13;;;1.90;;
51184;SDS011;37248;59.350;18.050;2023-05-14T11:06:33;5.10;;;2.20;;
51184;SDS011;37248;59.350;18.050;2023-05-14T11:08:59;3.83;;;2.20;;
51184;SDS011;37248;59.350;18.050;2023-05-14T11:11:25;3.70;;;2.00;;
51184;SDS011;37248;59.350;18.050;2023-05-14T11:13:51;3.50;;;2.17;;
51184;SDS011;37248;59.350;18.050;2023-05-14T11:16:17;5.13;;;2.20;;
51184;SDS011;37248;59.350;18.050;2023-05-14T11:18:43;2.90;;;2.10;;
51184;SDS011;37248;59.350;18.050;2023-05-14T11:21:09;5.03;;;2.10;;
51184;SDS011;37248;59.350;18.050;2023-05-14T11:23:34;4.87;;;2.13;;
51184;SDS011;37248;59.350;18.050;2023-05-14T11:26:00;5.75;;;2.17;;
51184;SDS011;37248;59.350;18.050;2023-05-14T11:28:25;3.17;;;2.10;;
51184;SDS011;37248;59.350;18.050;2023-05-14T11:30:51;5.77;;;2.37;;
51184;SDS011;37248;59.350;18.050;2023-05-14T11:33:17;2.92;;;2.15;;
51184;SDS011;37248;59.350;18.050;2023-05-14T11:35:42;3.73;;;2.00;;
51184;SDS011;37248;59.350;18.050;2023-05-14T11:38:19;3.17;;;2.03;;
51184;SDS011;37248;59.350;18.050;2023-05-14T11:40:54;3.13;;;1.80;;
51184;SDS011;37248;59.350;18.050;2023-05-14T11:43:20;5.07;;;2.00;;
51184;SDS011;37248;59.350;18.050;2023-05-14T11:45:51;3.27;;;1.90;;
51184;SDS011;37248;59.350;18.050;2023-05-14T11:48:16;2.88;;;2.03;;
51184;SDS011;37248;59.350;18.050;2023-05-14T11:50:46;4.60;;;1.90;;
51184;SDS011;37248;59.350;18.050;2023-05-14T11:53:15;3.67;;;2.30;;
51184;SDS011;37248;59.350;18.050;2023-05-14T11:55:40;3.03;;;2.00;;
51184;SDS011;37248;59.350;18.050;2023-05-14T11:58:05;3.23;;;1.97;;
51184;SDS011;37248;59.350;18.050;2023-05-14T12:00:31;2.93;;;1.90;;
51184;SDS011;37248;59.350;18.050;2023-05-14T12:02:58;4.35;;;2.17;;
51184;SDS011;37248;59.350;18.050;2023-05-14T12:05:23;2.33;;;1.80;;
51184;SDS011;37248;59.350;18.050;2023-05-14T12:07:49;2.60;;;1.80;;
51184;SDS011;37248;59.350;18.050;2023-05-14T12:10:14;3.60;;;2.20;;
51184;SDS011;37248;59.350;18.050;2023-05-14T12:12:39;3.00;;;2.00;;
51184;SDS011;37248;59.350;18.050;2023-05-14T12:15:11;2.63;;;1.90;;
51184;SDS011;37248;59.350;18.050;2023-05-14T12:17:37;2.55;;;1.67;;
51184;SDS011;37248;59.350;18.050;2023-05-14T12:20:03;4.27;;;2.00;;
51184;SDS011;37248;59.350;18.050;2023-05-14T12:22:29;2.97;;;1.95;;
51184;SDS011;37248;59.350;18.050;2023-05-14T12:24:56;4.40;;;2.10;;
51184;SDS011;37248;59.350;18.050;2023-05-14T12:27:25;2.50;;;1.80;;
51184;SDS011;37248;59.350;18.050;2023-05-14T12:29:57;2.35;;;1.77;;
51184;SDS011;37248;59.350;18.050;2023-05-14T12:32:24;3.20;;;1.95;;
51184;SDS011;37248;59.350;18.050;2023-05-14T12:34:49;4.20;;;2.10;;
51184;SDS011;37248;59.350;18.050;2023-05-14T12:37:14;2.53;;;1.80;;
51184;SDS011;37248;59.350;18.050;2023-05-14T12:39:40;2.60;;;1.77;;
51184;SDS011;37248;59.350;18.050;2023-05-14T12:42:05;2.20;;;1.60;;
51184;SDS011;37248;59.350;18.050;2023-05-14T12:44:30;2.30;;;1.90;;
51184;SDS011;37248;59.350;18.050;2023-05-14T12:46:55;3.30;;;2.00;;
51184;SDS011;37248;59.350;18.050;2023-05-14T12:49:21;2.40;;;1.95;;
51184;SDS011;37248;59.350;18.050;2023-05-14T12:51:46;2.30;;;1.80;;
51184;SDS011;37248;59.350;18.050;2023-05-14T12:54:12;2.13;;;1.70;;
51184;SDS011;37248;59.350;18.050;2023-05-14T12:56:39;2.70;;;1.80;;
51184;SDS011;37248;59.350;18.050;2023-05-14T12:59:05;3.22;;;1.90;;
51184;SDS011;37248;59.350;18.050;2023-05-14T13:01:30;3.20;;;1.50;;
51184;SDS011;37248;59.350;18.050;2023-05-14T13:03:55;2.30;;;1.90;;
51184;SDS011;37248;59.350;18.050;2023-05-14T13:06:22;3.10;;;1.60;;
51184;SDS011;37248;59.350;18.050;2023-05-14T13:08:47;2.23;;;1.83;;
51184;SDS011;37248;59.350;18.050;2023-05-14T13:11:12;2.03;;;1.60;;
51184;SDS011;37248;59.350;18.050;2023-05-14T13:13:38;3.50;;;1.87;;
51184;SDS011;37248;59.350;18.050;2023-05-14T13:16:03;2.73;;;1.90;;
51184;SDS011;37248;59.350;18.050;2023-05-14T13:18:28;3.83;;;1.90;;
51184;SDS011;37248;59.350;18.050;2023-05-14T13:20:54;4.57;;;1.90;;
51184;SDS011;37248;59.350;18.050;2023-05-14T13:23:19;2.95;;;1.65;;
51184;SDS011;37248;59.350;18.050;2023-05-14T13:25:44;2.97;;;1.87;;
51184;SDS011;37248;59.350;18.050;2023-05-14T13:28:09;4.53;;;2.20;;
51184;SDS011;37248;59.350;18.050;2023-05-14T13:30:35;5.20;;;2.30;;
51184;SDS011;37248;59.350;18.050;2023-05-14T13:33:00;5.30;;;2.00;;
51184;SDS011;37248;59.350;18.050;2023-05-14T13:35:25;4.77;;;2.17;;
51184;SDS011;37248;59.350;18.050;2023-05-14T13:37:50;6.63;;;2.20;;
51184;SDS011;37248;59.350;18.050;2023-05-14T13:40:16;5.03;;;2.42;;
51184;SDS011;37248;59.350;18.050;2023-05-14T13:42:41;7.73;;;2.50;;
51184;SDS011;37248;59.350;18.050;2023-05-14T13:45:07;3.22;;;1.90;;
51184;SDS011;37248;59.350;18.050;2023-05-14T13:47:32;8.33;;;2.10;;
51184;SDS011;37248;59.350;18.050;2023-05-14T13:49:58;7.40;;;2.53;;
51184;SDS011;37248;59.350;18.050;2023-05-14T13:52:23;7.70;;;2.42;;
51184;SDS011;37248;59.350;18.050;2023-05-14T13:54:48;3.47;;;2.30;;
51184;SDS011;37248;59.350;18.050;2023-05-14T13:57:14;9.47;;;3.40;;
51184;SDS011;37248;59.350;18.050;2023-05-14T13:59:39;8.20;;;2.50;;
51184;SDS011;37248;59.350;18.050;2023-05-14T14:02:04;11.27;;;4.40;;
51184;SDS011;37248;59.350;18.050;2023-05-14T14:04:30;11.57;;;3.30;;
51184;SDS011;37248;59.350;18.050;2023-05-14T14:06:55;7.27;;;3.00;;
51184;SDS011;37248;59.350;18.050;2023-05-14T14:09:21;6.10;;;2.65;;
51184;SDS011;37248;59.350;18.050;2023-05-14T14:11:47;8.77;;;2.70;;
51184;SDS011;37248;59.350;18.050;2023-05-14T14:14:12;11.33;;;3.10;;
51184;SDS011;37248;59.350;18.050;2023-05-14T14:16:37;8.65;;;3.03;;
51184;SDS011;37248;59.350;18.050;2023-05-14T14:19:03;5.57;;;2.97;;
51184;SDS011;37248;59.350;18.050;2023-05-14T14:21:28;6.53;;;2.67;;
51184;SDS011;37248;59.350;18.050;2023-05-14T14:23:53;6.80;;;2.57;;
51184;SDS011;37248;59.350;18.050;2023-05-14T14:26:18;16.23;;;3.40;;